sensor_id;sensor_type;location;lat;lon;timestamp;temperature;humidity
18934;DHT22;9599;53.706;10.384;2023-01-26T00:01:50;-0.20;99.90
18934;DHT22;9599;53.706;10.384;2023-01-26T00:04:19;-0.10;99.90
18934;DHT22;9599;53.706;10.384;2023-01-26T00:06:47;-0.10;99.90
18934;DHT22;9599;53.706;10.384;2023-01-26T00:09:15;-0.10;99.90
18934;DHT22;9599;53.706;10.384;2023-01-26T00:11:43;-0.10;99.90
18934;DHT22;9599;53.706;10.384;2023-01-26T00:14:10;-0.10;99.90
18934;DHT22;9599;53.706;10.384;2023-01-26T00:16:38;-0.20;99.90
18934;DHT22;9599;53.706;10.384;2023-01-26T00:19:08;-0.10;99.90
18934;DHT22;9599;53.706;10.384;2023-01-26T00:21:36;-0.10;99.90
18934;DHT22;9599;53.706;10.384;2023-01-26T00:24:04;-0.10;99.90
18934;DHT22;9599;53.706;10.384;2023-01-26T00:26:32;-0.10;99.90
18934;DHT22;9599;53.706;10.384;2023-01-26T00:29:00;-0.10;99.90
18934;DHT22;9599;53.706;10.384;2023-01-26T00:31:28;-0.10;99.90
18934;DHT22;9599;53.706;10.384;2023-01-26T00:33:58;-0.20;99.90
18934;DHT22;9599;53.706;10.384;2023-01-26T00:36:29;-0.20;99.90
18934;DHT22;9599;53.706;10.384;2023-01-26T00:38:57;-0.30;99.90
18934;DHT22;9599;53.706;10.384;2023-01-26T00:41:24;-0.20;99.90
18934;DHT22;9599;53.706;10.384;2023-01-26T00:44:10;-0.20;99.90
18934;DHT22;9599;53.706;10.384;2023-01-26T00:46:38;-0.20;99.90
18934;DHT22;9599;53.706;10.384;2023-01-26T00:49:06;-0.20;99.90
18934;DHT22;9599;53.706;10.384;2023-01-26T00:51:36;-0.10;99.90
18934;DHT22;9599;53.706;10.384;2023-01-26T00:54:04;-0.20;99.90
18934;DHT22;9599;53.706;10.384;2023-01-26T00:56:31;-0.20;99.90
18934;DHT22;9599;53.706;10.384;2023-01-26T00:58:59;-0.30;99.90
18934;DHT22;9599;53.706;10.384;2023-01-26T01:01:27;-0.30;99.90
18934;DHT22;9599;53.706;10.384;2023-01-26T01:03:55;-0.30;99.90
18934;DHT22;9599;53.706;10.384;2023-01-26T01:06:23;-0.30;99.90
18934;DHT22;9599;53.706;10.384;2023-01-26T01:08:53;-0.30;99.90
18934;DHT22;9599;53.706;10.384;2023-01-26T01:11:20;-0.30;99.90
18934;DHT22;9599;53.706;10.384;2023-01-26T01:13:50;-0.30;99.90
18934;DHT22;9599;53.706;10.384;2023-01-26T01:16:18;-0.30;99.90
18934;DHT22;9599;53.706;10.384;2023-01-26T01:18:46;-0.30;99.90
18934;DHT22;9599;53.706;10.384;2023-01-26T01:21:16;-0.30;99.90
18934;DHT22;9599;53.706;10.384;2023-01-26T01:23:44;-0.30;99.90
18934;DHT22;9599;53.706;10.384;2023-01-26T01:26:14;-0.30;99.90
18934;DHT22;9599;53.706;10.384;2023-01-26T01:28:42;-0.30;99.90
18934;DHT22;9599;53.706;10.384;2023-01-26T01:31:12;-0.30;99.90
18934;DHT22;9599;53.706;10.384;2023-01-26T01:33:41;-0.20;99.90
18934;DHT22;9599;53.706;10.384;2023-01-26T01:36:11;-0.20;99.90
18934;DHT22;9599;53.706;10.384;2023-01-26T01:38:40;-0.20;99.90
18934;DHT22;9599;53.706;10.384;2023-01-26T01:41:09;-0.20;99.90
18934;DHT22;9599;53.706;10.384;2023-01-26T01:43:38;-0.20;99.90
18934;DHT22;9599;53.706;10.384;2023-01-26T01:46:13;-0.10;99.90
18934;DHT22;9599;53.706;10.384;2023-01-26T01:48:48;-0.10;99.90
18934;DHT22;9599;53.706;10.384;2023-01-26T01:51:25;-0.20;99.90
18934;DHT22;9599;53.706;10.384;2023-01-26T01:53:56;-0.20;99.90
18934;DHT22;9599;53.706;10.384;2023-01-26T01:56:27;-0.20;99.90
18934;DHT22;9599;53.706;10.384;2023-01-26T01:58:58;-0.10;99.90
18934;DHT22;9599;53.706;10.384;2023-01-26T02:01:28;-0.20;99.90
18934;DHT22;9599;53.706;10.384;2023-01-26T02:03:59;-0.20;99.90
18934;DHT22;9599;53.706;10.384;2023-01-26T02:06:31;-0.20;99.90
18934;DHT22;9599;53.706;10.384;2023-01-26T02:09:00;-0.20;99.90
18934;DHT22;9599;53.706;10.384;2023-01-26T02:11:32;-0.20;99.90
18934;DHT22;9599;53.706;10.384;2023-01-26T02:14:04;-0.20;99.90
18934;DHT22;9599;53.706;10.384;2023-01-26T02:16:33;-0.10;99.90
18934;DHT22;9599;53.706;10.384;2023-01-26T02:19:03;-0.10;99.90
18934;DHT22;9599;53.706;10.384;2023-01-26T02:21:31;-0.10;99.90
18934;DHT22;9599;53.706;10.384;2023-01-26T02:24:08;-0.10;99.90
18934;DHT22;9599;53.706;10.384;2023-01-26T02:26:41;-0.10;99.90
18934;DHT22;9599;53.706;10.384;2023-01-26T02:29:10;-0.10;99.90
18934;DHT22;9599;53.706;10.384;2023-01-26T02:31:42;-0.10;99.90
18934;DHT22;9599;53.706;10.384;2023-01-26T02:34:10;-0.10;99.90
18934;DHT22;9599;53.706;10.384;2023-01-26T02:36:38;0.00;99.90
18934;DHT22;9599;53.706;10.384;2023-01-26T02:39:19;0.00;99.90
18934;DHT22;9599;53.706;10.384;2023-01-26T02:41:51;0.00;99.90
18934;DHT22;9599;53.706;10.384;2023-01-26T02:44:39;0.00;99.90
18934;DHT22;9599;53.706;10.384;2023-01-26T02:47:12;0.00;99.90
18934;DHT22;9599;53.706;10.384;2023-01-26T02:49:41;-0.10;99.90
18934;DHT22;9599;53.706;10.384;2023-01-26T02:52:20;0.00;99.90
18934;DHT22;9599;53.706;10.384;2023-01-26T02:54:56;-0.10;99.90
18934;DHT22;9599;53.706;10.384;2023-01-26T02:57:44;0.00;99.90
18934;DHT22;9599;53.706;10.384;2023-01-26T03:00:15;0.00;99.90
18934;DHT22;9599;53.706;10.384;2023-01-26T03:02:45;-0.10;99.90
18934;DHT22;9599;53.706;10.384;2023-01-26T03:05:13;-0.10;99.90
18934;DHT22;9599;53.706;10.384;2023-01-26T03:07:41;0.00;99.90
18934;DHT22;9599;53.706;10.384;2023-01-26T03:10:11;0.10;99.90
18934;DHT22;9599;53.706;10.384;2023-01-26T03:12:39;0.10;99.90
18934;DHT22;9599;53.706;10.384;2023-01-26T03:15:10;0.10;99.90
18934;DHT22;9599;53.706;10.384;2023-01-26T03:18:00;0.10;99.90
18934;DHT22;9599;53.706;10.384;2023-01-26T03:21:04;0.10;99.90
18934;DHT22;9599;53.706;10.384;2023-01-26T03:23:50;0.10;99.90
18934;DHT22;9599;53.706;10.384;2023-01-26T03:26:36;0.10;99.90
18934;DHT22;9599;53.706;10.384;2023-01-26T03:29:23;0.10;99.90
18934;DHT22;9599;53.706;10.384;2023-01-26T03:31:55;0.10;99.90
18934;DHT22;9599;53.706;10.384;2023-01-26T03:34:25;0.10;99.90
18934;DHT22;9599;53.706;10.384;2023-01-26T03:36:53;0.00;99.90
18934;DHT22;9599;53.706;10.384;2023-01-26T03:39:21;0.00;99.90
18934;DHT22;9599;53.706;10.384;2023-01-26T03:42:06;0.00;99.90
18934;DHT22;9599;53.706;10.384;2023-01-26T03:44:52;0.00;99.90
18934;DHT22;9599;53.706;10.384;2023-01-26T03:47:41;0.10;99.90
18934;DHT22;9599;53.706;10.384;2023-01-26T03:50:28;0.10;99.90
18934;DHT22;9599;53.706;10.384;2023-01-26T03:53:15;0.20;99.90
18934;DHT22;9599;53.706;10.384;2023-01-26T03:56:04;0.20;99.90
18934;DHT22;9599;53.706;10.384;2023-01-26T03:58:45;0.20;99.90
18934;DHT22;9599;53.706;10.384;2023-01-26T04:01:14;0.30;99.90
18934;DHT22;9599;53.706;10.384;2023-01-26T04:03:50;0.30;99.90
18934;DHT22;9599;53.706;10.384;2023-01-26T04:06:38;0.20;99.90
18934;DHT22;9599;53.706;10.384;2023-01-26T04:09:24;0.20;99.90
18934;DHT22;9599;53.706;10.384;2023-01-26T04:11:52;0.20;99.90
18934;DHT22;9599;53.706;10.384;2023-01-26T04:14:20;0.30;99.90
18934;DHT22;9599;53.706;10.384;2023-01-26T04:17:19;0.30;99.90
18934;DHT22;9599;53.706;10.384;2023-01-26T04:20:07;0.30;99.90
18934;DHT22;9599;53.706;10.384;2023-01-26T04:22:53;0.30;99.90
18934;DHT22;9599;53.706;10.384;2023-01-26T04:25:22;0.30;99.90
18934;DHT22;9599;53.706;10.384;2023-01-26T04:27:50;0.30;99.90
18934;DHT22;9599;53.706;10.384;2023-01-26T04:30:19;0.40;99.90
18934;DHT22;9599;53.706;10.384;2023-01-26T04:32:49;0.40;99.90
18934;DHT22;9599;53.706;10.384;2023-01-26T04:35:19;0.40;99.90
18934;DHT22;9599;53.706;10.384;2023-01-26T04:37:47;0.40;99.90
18934;DHT22;9599;53.706;10.384;2023-01-26T04:40:15;0.40;99.90
18934;DHT22;9599;53.706;10.384;2023-01-26T04:42:45;0.40;99.90
18934;DHT22;9599;53.706;10.384;2023-01-26T04:45:13;0.40;99.90
18934;DHT22;9599;53.706;10.384;2023-01-26T04:47:43;0.40;99.90
18934;DHT22;9599;53.706;10.384;2023-01-26T04:50:14;0.40;99.90
18934;DHT22;9599;53.706;10.384;2023-01-26T04:52:45;0.40;99.90
18934;DHT22;9599;53.706;10.384;2023-01-26T04:55:14;0.40;99.90
18934;DHT22;9599;53.706;10.384;2023-01-26T04:57:43;0.50;99.90
18934;DHT22;9599;53.706;10.384;2023-01-26T05:00:12;0.40;99.90
18934;DHT22;9599;53.706;10.384;2023-01-26T05:02:41;0.40;99.90
18934;DHT22;9599;53.706;10.384;2023-01-26T05:05:09;0.40;99.90
18934;DHT22;9599;53.706;10.384;2023-01-26T05:07:37;0.40;99.90
18934;DHT22;9599;53.706;10.384;2023-01-26T05:10:08;0.40;99.90
18934;DHT22;9599;53.706;10.384;2023-01-26T05:13:02;0.40;99.90
18934;DHT22;9599;53.706;10.384;2023-01-26T05:15:43;0.40;99.90
18934;DHT22;9599;53.706;10.384;2023-01-26T05:18:24;0.50;99.90
18934;DHT22;9599;53.706;10.384;2023-01-26T05:21:02;0.50;99.90
18934;DHT22;9599;53.706;10.384;2023-01-26T05:23:38;0.50;99.90
18934;DHT22;9599;53.706;10.384;2023-01-26T05:26:38;0.50;99.90
18934;DHT22;9599;53.706;10.384;2023-01-26T05:29:11;0.40;99.90
18934;DHT22;9599;53.706;10.384;2023-01-26T05:31:39;0.50;99.90
18934;DHT22;9599;53.706;10.384;2023-01-26T05:34:08;0.50;99.90
18934;DHT22;9599;53.706;10.384;2023-01-26T05:36:36;0.40;99.90
18934;DHT22;9599;53.706;10.384;2023-01-26T05:39:04;0.50;99.90
18934;DHT22;9599;53.706;10.384;2023-01-26T05:41:32;0.60;99.90
18934;DHT22;9599;53.706;10.384;2023-01-26T05:44:21;0.70;99.90
18934;DHT22;9599;53.706;10.384;2023-01-26T05:46:56;0.60;99.90
18934;DHT22;9599;53.706;10.384;2023-01-26T05:49:24;0.60;99.90
18934;DHT22;9599;53.706;10.384;2023-01-26T05:51:53;0.60;99.90
18934;DHT22;9599;53.706;10.384;2023-01-26T05:54:22;0.70;99.90
18934;DHT22;9599;53.706;10.384;2023-01-26T05:56:50;0.70;99.90
18934;DHT22;9599;53.706;10.384;2023-01-26T05:59:20;0.70;99.90
18934;DHT22;9599;53.706;10.384;2023-01-26T06:01:48;0.70;99.90
18934;DHT22;9599;53.706;10.384;2023-01-26T06:04:16;0.70;99.90
18934;DHT22;9599;53.706;10.384;2023-01-26T06:06:51;0.70;99.90
18934;DHT22;9599;53.706;10.384;2023-01-26T06:09:22;0.70;99.90
18934;DHT22;9599;53.706;10.384;2023-01-26T06:12:29;0.70;99.90
18934;DHT22;9599;53.706;10.384;2023-01-26T06:15:15;0.70;99.90
18934;DHT22;9599;53.706;10.384;2023-01-26T06:17:45;0.60;99.90
18934;DHT22;9599;53.706;10.384;2023-01-26T06:20:14;0.70;99.90
18934;DHT22;9599;53.706;10.384;2023-01-26T06:22:50;0.70;99.90
18934;DHT22;9599;53.706;10.384;2023-01-26T06:25:18;0.70;99.90
18934;DHT22;9599;53.706;10.384;2023-01-26T06:27:46;0.70;99.90
18934;DHT22;9599;53.706;10.384;2023-01-26T06:30:24;0.70;99.90
18934;DHT22;9599;53.706;10.384;2023-01-26T06:32:54;0.70;99.90
18934;DHT22;9599;53.706;10.384;2023-01-26T06:35:25;0.80;99.90
18934;DHT22;9599;53.706;10.384;2023-01-26T06:37:56;0.80;99.90
18934;DHT22;9599;53.706;10.384;2023-01-26T06:40:24;0.80;99.90
18934;DHT22;9599;53.706;10.384;2023-01-26T06:42:52;0.80;99.90
18934;DHT22;9599;53.706;10.384;2023-01-26T06:45:20;0.80;99.90
18934;DHT22;9599;53.706;10.384;2023-01-26T06:47:50;0.70;99.90
18934;DHT22;9599;53.706;10.384;2023-01-26T06:50:21;0.70;99.90
18934;DHT22;9599;53.706;10.384;2023-01-26T06:52:51;0.90;99.90
18934;DHT22;9599;53.706;10.384;2023-01-26T06:55:36;0.90;99.90
18934;DHT22;9599;53.706;10.384;2023-01-26T06:58:27;0.90;99.90
18934;DHT22;9599;53.706;10.384;2023-01-26T07:01:06;0.90;99.90
18934;DHT22;9599;53.706;10.384;2023-01-26T07:03:35;0.90;99.90
18934;DHT22;9599;53.706;10.384;2023-01-26T07:06:03;0.80;99.90
18934;DHT22;9599;53.706;10.384;2023-01-26T07:08:33;0.80;99.90
18934;DHT22;9599;53.706;10.384;2023-01-26T07:11:01;0.90;99.90
18934;DHT22;9599;53.706;10.384;2023-01-26T07:13:29;0.90;99.90
18934;DHT22;9599;53.706;10.384;2023-01-26T07:15:59;0.90;99.90
18934;DHT22;9599;53.706;10.384;2023-01-26T07:18:28;1.00;99.90
18934;DHT22;9599;53.706;10.384;2023-01-26T07:21:00;1.00;99.90
18934;DHT22;9599;53.706;10.384;2023-01-26T07:23:28;1.00;99.90
18934;DHT22;9599;53.706;10.384;2023-01-26T07:25:56;1.00;99.90
18934;DHT22;9599;53.706;10.384;2023-01-26T07:28:25;0.90;99.90
18934;DHT22;9599;53.706;10.384;2023-01-26T07:30:56;0.90;99.90
18934;DHT22;9599;53.706;10.384;2023-01-26T07:33:25;0.90;99.90
18934;DHT22;9599;53.706;10.384;2023-01-26T07:35:53;0.90;99.90
18934;DHT22;9599;53.706;10.384;2023-01-26T07:38:23;0.90;99.90
18934;DHT22;9599;53.706;10.384;2023-01-26T07:40:51;1.00;99.90
18934;DHT22;9599;53.706;10.384;2023-01-26T07:43:19;1.00;99.90
18934;DHT22;9599;53.706;10.384;2023-01-26T07:45:51;1.00;99.90
18934;DHT22;9599;53.706;10.384;2023-01-26T07:48:20;1.00;99.90
18934;DHT22;9599;53.706;10.384;2023-01-26T07:50:49;1.00;99.90
18934;DHT22;9599;53.706;10.384;2023-01-26T07:53:17;1.00;99.90
18934;DHT22;9599;53.706;10.384;2023-01-26T07:55:49;1.00;99.90
18934;DHT22;9599;53.706;10.384;2023-01-26T07:58:17;1.00;99.90
18934;DHT22;9599;53.706;10.384;2023-01-26T08:00:45;1.00;99.90
18934;DHT22;9599;53.706;10.384;2023-01-26T08:03:13;1.00;99.90
18934;DHT22;9599;53.706;10.384;2023-01-26T08:05:41;1.00;99.90
18934;DHT22;9599;53.706;10.384;2023-01-26T08:08:10;1.10;99.90
18934;DHT22;9599;53.706;10.384;2023-01-26T08:10:37;1.10;99.90
18934;DHT22;9599;53.706;10.384;2023-01-26T08:13:07;1.10;99.90
18934;DHT22;9599;53.706;10.384;2023-01-26T08:15:35;1.10;99.90
18934;DHT22;9599;53.706;10.384;2023-01-26T08:18:03;1.10;99.90
18934;DHT22;9599;53.706;10.384;2023-01-26T08:20:32;1.00;99.90
18934;DHT22;9599;53.706;10.384;2023-01-26T08:23:00;1.10;99.90
18934;DHT22;9599;53.706;10.384;2023-01-26T08:25:28;1.10;99.90
18934;DHT22;9599;53.706;10.384;2023-01-26T08:27:58;1.10;99.90
18934;DHT22;9599;53.706;10.384;2023-01-26T08:30:27;1.10;99.90
18934;DHT22;9599;53.706;10.384;2023-01-26T08:32:55;1.20;99.90
18934;DHT22;9599;53.706;10.384;2023-01-26T08:35:23;1.20;99.90
18934;DHT22;9599;53.706;10.384;2023-01-26T08:37:52;1.20;99.90
18934;DHT22;9599;53.706;10.384;2023-01-26T08:40:20;1.10;99.90
18934;DHT22;9599;53.706;10.384;2023-01-26T08:42:47;1.10;99.90
18934;DHT22;9599;53.706;10.384;2023-01-26T08:45:15;1.10;99.90
18934;DHT22;9599;53.706;10.384;2023-01-26T08:47:47;1.10;99.90
18934;DHT22;9599;53.706;10.384;2023-01-26T08:50:16;1.10;99.90
18934;DHT22;9599;53.706;10.384;2023-01-26T08:52:44;1.20;99.90
18934;DHT22;9599;53.706;10.384;2023-01-26T08:55:12;1.20;99.90
18934;DHT22;9599;53.706;10.384;2023-01-26T08:57:39;1.20;99.90
18934;DHT22;9599;53.706;10.384;2023-01-26T09:00:09;1.20;99.90
18934;DHT22;9599;53.706;10.384;2023-01-26T09:02:37;1.30;99.90
18934;DHT22;9599;53.706;10.384;2023-01-26T09:05:08;1.30;99.90
18934;DHT22;9599;53.706;10.384;2023-01-26T09:07:36;1.30;99.90
18934;DHT22;9599;53.706;10.384;2023-01-26T09:10:05;1.50;99.90
18934;DHT22;9599;53.706;10.384;2023-01-26T09:12:33;1.60;99.90
18934;DHT22;9599;53.706;10.384;2023-01-26T09:15:01;1.50;99.90
18934;DHT22;9599;53.706;10.384;2023-01-26T09:17:29;1.50;99.90
18934;DHT22;9599;53.706;10.384;2023-01-26T09:19:57;1.50;99.90
18934;DHT22;9599;53.706;10.384;2023-01-26T09:22:27;1.50;99.90
18934;DHT22;9599;53.706;10.384;2023-01-26T09:24:55;1.50;99.90
18934;DHT22;9599;53.706;10.384;2023-01-26T09:27:24;1.50;99.90
18934;DHT22;9599;53.706;10.384;2023-01-26T09:29:52;1.50;99.90
18934;DHT22;9599;53.706;10.384;2023-01-26T09:32:21;1.60;99.90
18934;DHT22;9599;53.706;10.384;2023-01-26T09:34:49;1.50;99.90
18934;DHT22;9599;53.706;10.384;2023-01-26T09:37:17;1.50;99.90
18934;DHT22;9599;53.706;10.384;2023-01-26T09:39:46;1.50;99.90
18934;DHT22;9599;53.706;10.384;2023-01-26T09:42:29;1.50;99.90
18934;DHT22;9599;53.706;10.384;2023-01-26T09:45:06;1.50;99.90
18934;DHT22;9599;53.706;10.384;2023-01-26T09:47:49;1.50;99.90
18934;DHT22;9599;53.706;10.384;2023-01-26T09:50:23;1.50;99.90
18934;DHT22;9599;53.706;10.384;2023-01-26T09:52:54;1.50;99.90
18934;DHT22;9599;53.706;10.384;2023-01-26T09:55:26;1.50;99.90
18934;DHT22;9599;53.706;10.384;2023-01-26T09:57:58;1.60;99.90
18934;DHT22;9599;53.706;10.384;2023-01-26T10:00:30;1.60;99.90
18934;DHT22;9599;53.706;10.384;2023-01-26T10:03:07;1.60;99.90
18934;DHT22;9599;53.706;10.384;2023-01-26T10:05:41;1.70;99.90
18934;DHT22;9599;53.706;10.384;2023-01-26T10:08:12;1.70;99.90
18934;DHT22;9599;53.706;10.384;2023-01-26T10:10:45;1.80;99.90
18934;DHT22;9599;53.706;10.384;2023-01-26T10:13:15;1.80;99.90
18934;DHT22;9599;53.706;10.384;2023-01-26T10:15:46;2.10;99.90
18934;DHT22;9599;53.706;10.384;2023-01-26T10:18:17;2.50;99.90
18934;DHT22;9599;53.706;10.384;2023-01-26T10:20:50;2.40;99.90
18934;DHT22;9599;53.706;10.384;2023-01-26T10:23:21;2.40;99.90
18934;DHT22;9599;53.706;10.384;2023-01-26T10:25:50;2.30;99.90
18934;DHT22;9599;53.706;10.384;2023-01-26T10:28:25;2.20;99.90
18934;DHT22;9599;53.706;10.384;2023-01-26T10:30:54;2.10;99.90
18934;DHT22;9599;53.706;10.384;2023-01-26T10:33:25;2.00;99.90
18934;DHT22;9599;53.706;10.384;2023-01-26T10:35:54;1.90;99.90
18934;DHT22;9599;53.706;10.384;2023-01-26T10:38:27;1.90;99.90
18934;DHT22;9599;53.706;10.384;2023-01-26T10:40:58;2.00;99.90
18934;DHT22;9599;53.706;10.384;2023-01-26T10:43:26;2.00;99.90
18934;DHT22;9599;53.706;10.384;2023-01-26T10:45:54;2.10;99.90
18934;DHT22;9599;53.706;10.384;2023-01-26T10:48:23;2.10;99.90
18934;DHT22;9599;53.706;10.384;2023-01-26T10:50:53;2.10;99.90
18934;DHT22;9599;53.706;10.384;2023-01-26T10:53:23;2.20;99.90
18934;DHT22;9599;53.706;10.384;2023-01-26T10:56:00;2.10;99.90
18934;DHT22;9599;53.706;10.384;2023-01-26T10:58:44;2.10;99.90
18934;DHT22;9599;53.706;10.384;2023-01-26T11:01:15;2.20;99.90
18934;DHT22;9599;53.706;10.384;2023-01-26T11:04:00;2.20;99.90
18934;DHT22;9599;53.706;10.384;2023-01-26T11:06:30;2.10;99.90
18934;DHT22;9599;53.706;10.384;2023-01-26T11:09:10;2.10;99.90
18934;DHT22;9599;53.706;10.384;2023-01-26T11:11:54;1.90;99.90
18934;DHT22;9599;53.706;10.384;2023-01-26T11:14:23;2.00;99.90
18934;DHT22;9599;53.706;10.384;2023-01-26T11:16:56;2.00;99.90
18934;DHT22;9599;53.706;10.384;2023-01-26T11:22:35;2.00;99.90
18934;DHT22;9599;53.706;10.384;2023-01-26T11:25:14;2.10;99.90
18934;DHT22;9599;53.706;10.384;2023-01-26T11:27:52;2.00;99.90
18934;DHT22;9599;53.706;10.384;2023-01-26T11:30:49;2.00;99.90
18934;DHT22;9599;53.706;10.384;2023-01-26T11:33:24;2.10;99.90
18934;DHT22;9599;53.706;10.384;2023-01-26T11:36:02;2.10;99.90
18934;DHT22;9599;53.706;10.384;2023-01-26T11:38:38;2.10;99.90
18934;DHT22;9599;53.706;10.384;2023-01-26T11:41:18;2.10;99.90
18934;DHT22;9599;53.706;10.384;2023-01-26T11:44:00;2.10;99.90
18934;DHT22;9599;53.706;10.384;2023-01-26T11:46:45;2.00;99.90
18934;DHT22;9599;53.706;10.384;2023-01-26T11:49:25;2.00;99.90
18934;DHT22;9599;53.706;10.384;2023-01-26T11:52:05;2.00;99.90
18934;DHT22;9599;53.706;10.384;2023-01-26T11:55:06;2.00;99.90
18934;DHT22;9599;53.706;10.384;2023-01-26T11:57:49;2.00;99.90
18934;DHT22;9599;53.706;10.384;2023-01-26T12:00:27;2.10;99.90
18934;DHT22;9599;53.706;10.384;2023-01-26T12:03:02;2.20;99.90
18934;DHT22;9599;53.706;10.384;2023-01-26T12:05:39;2.20;99.90
18934;DHT22;9599;53.706;10.384;2023-01-26T12:08:14;2.20;99.90
18934;DHT22;9599;53.706;10.384;2023-01-26T12:10:48;2.20;99.90
18934;DHT22;9599;53.706;10.384;2023-01-26T12:13:23;2.30;99.90
18934;DHT22;9599;53.706;10.384;2023-01-26T12:16:00;2.30;99.90
18934;DHT22;9599;53.706;10.384;2023-01-26T12:18:35;2.30;99.90
18934;DHT22;9599;53.706;10.384;2023-01-26T12:21:25;2.40;99.90
18934;DHT22;9599;53.706;10.384;2023-01-26T12:23:57;2.40;99.90
18934;DHT22;9599;53.706;10.384;2023-01-26T12:26:32;2.50;99.90
18934;DHT22;9599;53.706;10.384;2023-01-26T12:29:05;2.50;99.90
18934;DHT22;9599;53.706;10.384;2023-01-26T12:31:44;2.50;99.90
18934;DHT22;9599;53.706;10.384;2023-01-26T12:34:15;2.60;99.90
18934;DHT22;9599;53.706;10.384;2023-01-26T12:36:47;2.60;99.90
18934;DHT22;9599;53.706;10.384;2023-01-26T12:39:23;2.60;99.90
18934;DHT22;9599;53.706;10.384;2023-01-26T12:42:11;2.60;99.90
18934;DHT22;9599;53.706;10.384;2023-01-26T12:44:45;2.60;99.90
18934;DHT22;9599;53.706;10.384;2023-01-26T12:47:18;2.60;99.90
18934;DHT22;9599;53.706;10.384;2023-01-26T12:49:52;2.70;99.90
18934;DHT22;9599;53.706;10.384;2023-01-26T12:52:25;2.70;99.90
18934;DHT22;9599;53.706;10.384;2023-01-26T12:54:58;2.70;99.90
18934;DHT22;9599;53.706;10.384;2023-01-26T12:57:35;2.60;99.90
18934;DHT22;9599;53.706;10.384;2023-01-26T13:00:16;2.70;99.90
18934;DHT22;9599;53.706;10.384;2023-01-26T13:02:48;2.80;99.90
18934;DHT22;9599;53.706;10.384;2023-01-26T13:05:26;2.70;99.90
18934;DHT22;9599;53.706;10.384;2023-01-26T13:07:55;2.70;99.90
18934;DHT22;9599;53.706;10.384;2023-01-26T13:10:28;2.70;99.90
18934;DHT22;9599;53.706;10.384;2023-01-26T13:13:28;2.70;99.90
18934;DHT22;9599;53.706;10.384;2023-01-26T13:16:30;2.60;99.90
18934;DHT22;9599;53.706;10.384;2023-01-26T13:18:59;2.70;99.90
18934;DHT22;9599;53.706;10.384;2023-01-26T13:21:31;2.70;99.90
18934;DHT22;9599;53.706;10.384;2023-01-26T13:24:41;2.70;99.90
18934;DHT22;9599;53.706;10.384;2023-01-26T13:27:27;2.70;99.90
18934;DHT22;9599;53.706;10.384;2023-01-26T13:29:55;2.70;99.90
18934;DHT22;9599;53.706;10.384;2023-01-26T13:32:54;2.80;99.90
18934;DHT22;9599;53.706;10.384;2023-01-26T13:35:30;2.80;99.90
18934;DHT22;9599;53.706;10.384;2023-01-26T13:38:04;2.90;99.90
18934;DHT22;9599;53.706;10.384;2023-01-26T13:40:35;2.80;99.90
18934;DHT22;9599;53.706;10.384;2023-01-26T13:43:07;2.80;99.90
18934;DHT22;9599;53.706;10.384;2023-01-26T13:45:58;2.90;99.90
18934;DHT22;9599;53.706;10.384;2023-01-26T13:48:42;2.80;99.90
18934;DHT22;9599;53.706;10.384;2023-01-26T13:51:17;2.90;99.90
18934;DHT22;9599;53.706;10.384;2023-01-26T13:53:51;2.80;99.90
18934;DHT22;9599;53.706;10.384;2023-01-26T13:56:25;2.80;99.90
18934;DHT22;9599;53.706;10.384;2023-01-26T13:59:05;2.80;99.90
18934;DHT22;9599;53.706;10.384;2023-01-26T14:01:39;2.90;99.90
18934;DHT22;9599;53.706;10.384;2023-01-26T14:04:12;2.90;99.90
18934;DHT22;9599;53.706;10.384;2023-01-26T14:06:45;2.80;99.90
18934;DHT22;9599;53.706;10.384;2023-01-26T14:09:14;2.70;99.90
18934;DHT22;9599;53.706;10.384;2023-01-26T14:11:43;2.60;99.90
18934;DHT22;9599;53.706;10.384;2023-01-26T14:14:20;2.60;99.90
18934;DHT22;9599;53.706;10.384;2023-01-26T14:16:50;2.60;99.90
18934;DHT22;9599;53.706;10.384;2023-01-26T14:19:19;2.60;99.90
18934;DHT22;9599;53.706;10.384;2023-01-26T14:21:50;2.60;99.90
18934;DHT22;9599;53.706;10.384;2023-01-26T14:24:23;2.50;99.90
18934;DHT22;9599;53.706;10.384;2023-01-26T14:26:53;2.50;99.90
18934;DHT22;9599;53.706;10.384;2023-01-26T14:29:23;2.60;99.90
18934;DHT22;9599;53.706;10.384;2023-01-26T14:31:52;2.60;99.90
18934;DHT22;9599;53.706;10.384;2023-01-26T14:34:22;2.50;99.90
18934;DHT22;9599;53.706;10.384;2023-01-26T14:37:05;2.60;99.90
18934;DHT22;9599;53.706;10.384;2023-01-26T14:39:33;2.70;99.90
18934;DHT22;9599;53.706;10.384;2023-01-26T14:42:02;2.90;99.90
18934;DHT22;9599;53.706;10.384;2023-01-26T14:44:30;2.90;99.90
18934;DHT22;9599;53.706;10.384;2023-01-26T14:47:01;2.70;99.90
18934;DHT22;9599;53.706;10.384;2023-01-26T14:49:37;2.70;99.90
18934;DHT22;9599;53.706;10.384;2023-01-26T14:52:21;2.70;99.90
18934;DHT22;9599;53.706;10.384;2023-01-26T14:54:51;2.70;99.90
18934;DHT22;9599;53.706;10.384;2023-01-26T14:57:22;2.70;99.90
18934;DHT22;9599;53.706;10.384;2023-01-26T14:59:53;2.70;99.90
18934;DHT22;9599;53.706;10.384;2023-01-26T15:02:23;2.80;99.90
18934;DHT22;9599;53.706;10.384;2023-01-26T15:04:56;2.80;99.90
18934;DHT22;9599;53.706;10.384;2023-01-26T15:07:33;2.80;99.90
18934;DHT22;9599;53.706;10.384;2023-01-26T15:10:04;2.80;99.90
18934;DHT22;9599;53.706;10.384;2023-01-26T15:12:56;2.80;99.90
18934;DHT22;9599;53.706;10.384;2023-01-26T15:15:27;2.90;99.90
18934;DHT22;9599;53.706;10.384;2023-01-26T15:18:16;3.00;99.90
18934;DHT22;9599;53.706;10.384;2023-01-26T15:20:51;2.90;99.90
18934;DHT22;9599;53.706;10.384;2023-01-26T15:23:29;2.90;99.90
18934;DHT22;9599;53.706;10.384;2023-01-26T15:26:06;2.90;99.90
18934;DHT22;9599;53.706;10.384;2023-01-26T15:28:34;2.90;99.90
18934;DHT22;9599;53.706;10.384;2023-01-26T15:31:03;2.90;99.90
18934;DHT22;9599;53.706;10.384;2023-01-26T15:33:40;3.00;99.90
18934;DHT22;9599;53.706;10.384;2023-01-26T15:36:22;3.00;99.90
18934;DHT22;9599;53.706;10.384;2023-01-26T15:38:59;3.00;99.90
18934;DHT22;9599;53.706;10.384;2023-01-26T15:41:27;3.10;99.90
18934;DHT22;9599;53.706;10.384;2023-01-26T15:43:56;3.20;99.90
18934;DHT22;9599;53.706;10.384;2023-01-26T15:46:25;3.20;99.90
18934;DHT22;9599;53.706;10.384;2023-01-26T15:48:53;3.30;99.90
18934;DHT22;9599;53.706;10.384;2023-01-26T15:51:21;3.30;99.90
18934;DHT22;9599;53.706;10.384;2023-01-26T15:53:49;3.30;99.90
18934;DHT22;9599;53.706;10.384;2023-01-26T15:56:18;3.30;99.90
18934;DHT22;9599;53.706;10.384;2023-01-26T15:58:46;3.30;99.90
18934;DHT22;9599;53.706;10.384;2023-01-26T16:01:19;3.20;99.90
18934;DHT22;9599;53.706;10.384;2023-01-26T16:03:48;3.20;99.90
18934;DHT22;9599;53.706;10.384;2023-01-26T16:06:21;3.40;99.90
18934;DHT22;9599;53.706;10.384;2023-01-26T16:08:49;3.40;99.90
18934;DHT22;9599;53.706;10.384;2023-01-26T16:11:20;3.50;99.90
18934;DHT22;9599;53.706;10.384;2023-01-26T16:13:48;3.50;99.90
18934;DHT22;9599;53.706;10.384;2023-01-26T16:16:29;3.50;99.90
18934;DHT22;9599;53.706;10.384;2023-01-26T16:18:57;3.50;99.90
18934;DHT22;9599;53.706;10.384;2023-01-26T16:21:27;3.60;99.90
18934;DHT22;9599;53.706;10.384;2023-01-26T16:23:57;3.90;99.90